Terminal Aerodrome Forecast
Issued by NWS

Current Version | Previous Version | Text Only | Print | Product List | Glossary On
Versions: 1 2 3 4 5 6 7 8 9 10 11 12 13 14 15 16 17 18 19
102
FTUS46 KSGX 221736
TAFPSP
TAF
KPSP 221736Z 2218/2318 13007KT P6SM VCSH FEW020 OVC070
     FM222100 13007KT P6SM -SHRA SCT020 OVC060
      TEMPO 2300/2304 1 1/2SM +RA BKN015
     FM230800 11009G16KT 6SM -SHRA BR BKN035 OVC060=

USA.gov is the U.S. government's official web portal to all federal, state and local government web resources and services.